createdAt,value
2024-05-09T00:00:35.783Z,30.23
2024-05-09T00:03:07.444Z,32.47
2024-05-09T00:05:34.478Z,27.30
2024-05-09T00:08:01.450Z,26.88
2024-05-09T00:10:35.541Z,25.77
2024-05-09T00:13:04.993Z,25.23
2024-05-09T00:15:33.475Z,24.73
2024-05-09T00:18:00.583Z,29.40
2024-05-09T00:20:35.313Z,26.65
2024-05-09T00:23:07.494Z,25.83
2024-05-09T00:25:34.847Z,28.42
2024-05-09T00:28:01.638Z,27.83
2024-05-09T00:30:34.059Z,29.13
2024-05-09T00:33:03.627Z,28.50
2024-05-09T00:35:30.911Z,28.52
2024-05-09T00:37:57.591Z,27.02
2024-05-09T00:40:34.751Z,28.25
2024-05-09T00:43:06.127Z,27.70
2024-05-09T00:45:33.364Z,28.52
2024-05-09T00:48:01.655Z,30.23
2024-05-09T00:50:35.691Z,28.45
2024-05-09T00:53:04.878Z,28.58
2024-05-09T00:55:31.706Z,29.83
2024-05-09T00:57:58.323Z,31.55
2024-05-09T01:00:31.657Z,28.85
2024-05-09T01:03:05.335Z,27.08
2024-05-09T01:05:32.510Z,28.70
2024-05-09T01:07:59.237Z,28.63
2024-05-09T01:10:33.526Z,30.55
2024-05-09T01:13:01.919Z,25.73
2024-05-09T01:15:28.562Z,32.22
2024-05-09T01:17:56.561Z,27.83
2024-05-09T01:20:32.100Z,33.35
2024-05-09T01:23:07.614Z,32.95
2024-05-09T01:25:35.471Z,25.02
2024-05-09T01:28:02.323Z,29.70
2024-05-09T01:30:34.623Z,26.73
2024-05-09T01:33:04.050Z,30.50
2024-05-09T01:35:31.198Z,29.02
2024-05-09T01:37:57.941Z,28.88
2024-05-09T01:40:33.548Z,27.52
2024-05-09T01:43:04.651Z,30.02
2024-05-09T01:45:31.336Z,27.67
2024-05-09T01:47:58.376Z,26.92
2024-05-09T01:50:37.174Z,28.38
2024-05-09T01:53:07.512Z,32.75
2024-05-09T01:55:34.220Z,32.13
2024-05-09T01:58:00.917Z,32.75
2024-05-09T02:00:37.956Z,33.28
2024-05-09T02:03:14.623Z,32.25
2024-05-09T02:05:44.294Z,29.05
2024-05-09T02:08:15.591Z,34.90
2024-05-09T02:10:43.160Z,32.08
2024-05-09T02:13:10.036Z,31.48
2024-05-09T02:15:36.661Z,31.75
2024-05-09T02:18:03.537Z,29.65
2024-05-09T02:20:35.941Z,30.38
2024-05-09T02:23:05.114Z,31.08
2024-05-09T02:25:32.583Z,29.23
2024-05-09T02:27:59.623Z,32.78
2024-05-09T02:30:35.912Z,29.65
2024-05-09T02:33:07.212Z,28.05
2024-05-09T02:35:34.212Z,31.48
2024-05-09T02:38:01.025Z,33.30
2024-05-09T02:40:35.807Z,31.42
2024-05-09T02:43:05.186Z,30.80
2024-05-09T02:45:31.925Z,29.25
2024-05-09T02:47:58.815Z,32.13
2024-05-09T02:50:33.788Z,30.90
2024-05-09T02:53:05.090Z,31.05
2024-05-09T02:55:31.763Z,32.10
2024-05-09T02:57:58.303Z,30.60
2024-05-09T03:00:34.235Z,30.42
2024-05-09T03:03:06.452Z,30.58
2024-05-09T03:05:33.716Z,29.73
2024-05-09T03:08:00.431Z,36.72
2024-05-09T03:10:29.161Z,32.15
2024-05-09T03:13:05.672Z,30.70
2024-05-09T03:15:33.188Z,28.73
2024-05-09T03:18:00.904Z,28.73
2024-05-09T03:20:33.244Z,28.85
2024-05-09T03:23:02.169Z,30.45
2024-05-09T03:25:28.873Z,31.63
2024-05-09T03:27:55.434Z,30.15
2024-05-09T03:30:31.129Z,28.98
2024-05-09T03:33:09.687Z,29.58
2024-05-09T03:35:36.713Z,28.30
2024-05-09T03:38:03.406Z,28.23
2024-05-09T03:40:32.260Z,27.00
2024-05-09T03:42:58.988Z,26.40
2024-05-09T03:45:25.739Z,27.50
2024-05-09T03:47:52.868Z,27.05
2024-05-09T03:50:26.428Z,29.60
2024-05-09T03:53:00.352Z,25.65
2024-05-09T03:55:27.122Z,25.00
2024-05-09T03:57:53.704Z,26.20
2024-05-09T04:00:30.423Z,26.02
2024-05-09T04:03:02.888Z,26.00
2024-05-09T04:05:30.934Z,26.45
2024-05-09T04:07:57.882Z,26.02
2024-05-09T04:10:31.345Z,27.50
2024-05-09T04:13:00.561Z,24.92
2024-05-09T04:15:27.336Z,25.38
2024-05-09T04:17:54.133Z,25.05
2024-05-09T04:20:32.928Z,25.75
2024-05-09T04:23:05.323Z,25.70
2024-05-09T04:25:32.357Z,24.63
2024-05-09T04:27:58.973Z,27.30
2024-05-09T04:30:34.047Z,25.80
2024-05-09T04:33:05.244Z,26.45
2024-05-09T04:35:32.220Z,27.13
2024-05-09T04:37:59.023Z,25.40
2024-05-09T04:40:32.980Z,24.90
2024-05-09T04:43:02.405Z,25.13
2024-05-09T04:45:29.045Z,24.50
2024-05-09T04:47:55.885Z,25.73
2024-05-09T04:50:30.216Z,25.17
2024-05-09T04:53:03.178Z,25.63
2024-05-09T04:55:29.897Z,26.05
2024-05-09T04:57:56.455Z,30.60
2024-05-09T05:00:32.342Z,27.63
2024-05-09T05:03:05.909Z,25.95
2024-05-09T05:05:32.921Z,27.52
2024-05-09T05:07:59.617Z,24.70
2024-05-09T05:10:33.743Z,23.02
2024-05-09T05:13:23.097Z,23.35
2024-05-09T05:15:52.140Z,23.65
2024-05-09T05:18:19.366Z,22.85
2024-05-09T05:20:46.366Z,22.27
2024-05-09T05:23:14.366Z,20.35
2024-05-09T05:25:41.751Z,20.15
2024-05-09T05:28:08.447Z,20.85
2024-05-09T05:30:37.073Z,19.95
2024-05-09T05:33:07.575Z,20.73
2024-05-09T05:35:34.692Z,19.10
2024-05-09T05:38:01.612Z,18.45
2024-05-09T05:40:35.674Z,17.30
2024-05-09T05:43:04.917Z,15.95
2024-05-09T05:45:31.505Z,16.48
2024-05-09T05:47:58.240Z,16.70
2024-05-09T05:50:32.543Z,14.80
2024-05-09T05:53:03.019Z,15.02
2024-05-09T05:55:29.842Z,13.93
2024-05-09T05:57:56.430Z,14.00
2024-05-09T06:00:29.824Z,12.23
2024-05-09T06:03:04.274Z,13.63
2024-05-09T06:05:31.054Z,13.63
2024-05-09T06:07:57.878Z,14.52
2024-05-09T06:10:30.112Z,13.95
2024-05-09T06:13:03.980Z,13.02
2024-05-09T06:15:30.592Z,13.10
2024-05-09T06:17:57.316Z,12.02
2024-05-09T06:20:31.978Z,14.32
2024-05-09T06:23:03.462Z,12.57
2024-05-09T06:25:30.187Z,13.23
2024-05-09T06:27:56.899Z,13.18
2024-05-09T06:30:30.398Z,13.93
2024-05-09T06:33:05.177Z,13.93
2024-05-09T06:35:32.560Z,18.23
2024-05-09T06:37:59.340Z,17.38
2024-05-09T06:40:34.436Z,16.63
2024-05-09T06:43:04.898Z,15.85
2024-05-09T06:45:31.465Z,17.50
2024-05-09T06:47:58.161Z,17.83
2024-05-09T06:50:28.351Z,18.60
2024-05-09T06:52:58.373Z,18.55
2024-05-09T06:55:24.999Z,21.42
2024-05-09T06:57:51.586Z,19.25
2024-05-09T07:00:26.887Z,18.50
2024-05-09T07:02:59.062Z,19.80
2024-05-09T07:05:26.813Z,21.17
2024-05-09T07:07:53.522Z,20.90
2024-05-09T07:10:28.460Z,21.80
2024-05-09T07:12:59.370Z,20.63
2024-05-09T07:15:25.943Z,22.33
2024-05-09T07:17:52.780Z,21.95
2024-05-09T07:20:27.714Z,20.58
2024-05-09T07:23:00.714Z,21.60
2024-05-09T07:25:27.355Z,19.77
2024-05-09T07:27:53.911Z,19.88
2024-05-09T07:30:27.642Z,19.65
2024-05-09T07:32:59.919Z,20.42
2024-05-09T07:35:27.467Z,21.27
2024-05-09T07:37:54.421Z,20.17
2024-05-09T07:40:31.627Z,21.30
2024-05-09T07:43:05.525Z,22.17
2024-05-09T07:53:36.090Z,22.05
2024-05-09T07:55:47.452Z,22.80
2024-05-09T07:58:14.167Z,21.10
2024-05-09T08:00:41.024Z,21.88
2024-05-09T08:03:07.599Z,20.10
2024-05-09T08:05:34.370Z,21.05
2024-05-09T08:08:01.123Z,21.60
2024-05-09T08:10:29.201Z,21.75
2024-05-09T08:12:56.075Z,24.10
2024-05-09T08:15:22.816Z,21.15
2024-05-09T08:17:49.498Z,20.55
2024-05-09T08:20:26.461Z,20.10
2024-05-09T08:22:57.354Z,22.27
2024-05-09T08:25:24.028Z,20.77
2024-05-09T08:27:50.733Z,20.80
2024-05-09T08:30:24.699Z,19.55
2024-05-09T08:32:56.444Z,17.33
2024-05-09T08:35:24.102Z,18.08
2024-05-09T08:37:51.046Z,18.08
2024-05-09T08:40:24.096Z,19.95
2024-05-09T08:42:57.804Z,18.10
2024-05-09T08:45:24.490Z,17.00
2024-05-09T08:47:52.345Z,17.60
2024-05-09T08:50:31.415Z,19.38
2024-05-09T08:53:04.352Z,16.65
2024-05-09T08:55:31.151Z,17.27
2024-05-09T08:57:58.398Z,15.93
2024-05-09T09:00:33.854Z,17.17
2024-05-09T09:03:06.025Z,17.15
2024-05-09T09:05:35.400Z,16.83
2024-05-09T09:08:04.564Z,17.52
2024-05-09T09:10:32.693Z,17.85
2024-05-09T09:13:09.592Z,17.83
2024-05-09T09:15:46.705Z,17.58
2024-05-09T09:18:13.907Z,17.02
2024-05-09T09:20:40.634Z,17.90
2024-05-09T09:23:07.716Z,18.15
2024-05-09T09:25:34.313Z,15.98
2024-05-09T09:28:01.135Z,18.63
2024-05-09T09:30:35.353Z,18.27
2024-05-09T09:33:05.234Z,18.08
2024-05-09T09:35:32.279Z,18.77
2024-05-09T09:38:01.926Z,17.98
2024-05-09T09:40:32.830Z,18.83
2024-05-09T09:43:01.681Z,19.67
2024-05-09T09:45:33.996Z,18.20
2024-05-09T09:48:00.922Z,17.67
2024-05-09T09:50:34.212Z,18.13
2024-05-09T09:53:02.344Z,18.40
2024-05-09T09:55:30.086Z,18.90
2024-05-09T09:57:56.804Z,19.08
2024-05-09T10:00:30.519Z,19.08
2024-05-09T10:03:00.050Z,19.33
2024-05-09T10:05:27.370Z,21.58
2024-05-09T10:07:54.864Z,20.27
2024-05-09T10:10:29.891Z,18.35
2024-05-09T10:13:00.348Z,19.55
2024-05-09T10:15:27.350Z,18.63
2024-05-09T10:20:41.389Z,19.17
2024-05-09T10:23:24.682Z,18.10
2024-05-09T10:28:37.175Z,17.52
2024-05-09T10:31:08.184Z,16.88
2024-05-09T10:33:38.418Z,17.10
2024-05-09T10:36:14.724Z,17.45
2024-05-09T10:38:42.888Z,16.65
2024-05-09T10:41:09.671Z,15.63
2024-05-09T10:43:38.971Z,14.88
2024-05-09T10:46:05.758Z,16.33
2024-05-09T10:48:32.604Z,14.52
2024-05-09T10:50:59.330Z,16.48
2024-05-09T10:53:25.883Z,14.52
2024-05-09T10:55:59.052Z,15.25
2024-05-09T11:00:53.637Z,14.35
2024-05-09T11:03:21.411Z,14.55
2024-05-09T11:05:48.710Z,14.25
2024-05-09T11:08:15.944Z,14.32
2024-05-09T11:10:43.256Z,14.07
2024-05-09T11:13:10.099Z,16.17
2024-05-09T11:15:40.839Z,20.63
2024-05-09T11:18:07.914Z,13.32
2024-05-09T11:20:38.299Z,16.92
2024-05-09T11:23:08.139Z,13.35
2024-05-09T11:25:34.776Z,14.90
2024-05-09T11:28:01.550Z,19.35
2024-05-09T11:30:32.021Z,13.05
2024-05-09T11:32:59.500Z,14.55
2024-05-09T11:35:28.212Z,17.05
2024-05-09T11:37:55.135Z,13.38
2024-05-09T11:40:25.851Z,16.73
2024-05-09T11:42:58.939Z,15.40
2024-05-09T11:45:25.576Z,12.77
2024-05-09T11:47:52.439Z,13.57
2024-05-09T11:50:27.090Z,15.18
2024-05-09T11:52:56.948Z,14.05
2024-05-09T11:55:27.758Z,15.73
2024-05-09T11:57:55.467Z,16.92
2024-05-09T12:00:29.630Z,13.75
2024-05-09T12:03:04.959Z,12.88
2024-05-09T12:05:32.545Z,13.45
2024-05-09T12:07:59.495Z,14.00
2024-05-09T12:10:32.325Z,12.73
2024-05-09T12:13:01.625Z,13.82
2024-05-09T12:15:28.310Z,12.68
2024-05-09T12:17:57.331Z,16.42
2024-05-09T12:20:33.069Z,12.93
2024-05-09T12:23:03.892Z,12.95
2024-05-09T12:25:30.716Z,14.40
2024-05-09T12:27:57.356Z,12.38
2024-05-09T12:30:32.820Z,14.18
2024-05-09T12:33:04.292Z,10.77
2024-05-09T12:35:31.297Z,17.35
2024-05-09T12:37:57.867Z,10.75
2024-05-09T12:40:34.170Z,10.45
2024-05-09T12:43:04.212Z,11.20
2024-05-09T12:45:31.119Z,11.75
2024-05-09T12:47:58.335Z,10.48
2024-05-09T12:50:31.668Z,11.07
2024-05-09T12:53:00.482Z,10.90
2024-05-09T12:55:28.351Z,11.73
2024-05-09T12:57:56.702Z,10.98
2024-05-09T13:00:28.287Z,9.90
2024-05-09T13:03:00.552Z,11.13
2024-05-09T13:05:27.664Z,9.77
2024-05-09T13:07:56.442Z,10.32
2024-05-09T13:10:29.280Z,11.57
2024-05-09T13:12:59.437Z,10.27
2024-05-09T13:15:26.369Z,9.73
2024-05-09T13:17:53.137Z,10.65
2024-05-09T13:20:28.950Z,9.82
2024-05-09T13:23:01.531Z,10.88
2024-05-09T13:25:28.158Z,10.50
2024-05-09T13:27:55.010Z,12.43
2024-05-09T13:30:29.406Z,11.10
2024-05-09T13:33:05.148Z,12.85
2024-05-09T13:35:32.394Z,10.43
2024-05-09T13:38:00.949Z,16.65
2024-05-09T13:40:33.308Z,11.10
2024-05-09T13:43:02.509Z,16.00
2024-05-09T13:45:29.475Z,10.90
2024-05-09T13:47:56.508Z,10.80
2024-05-09T13:50:31.309Z,10.23
2024-05-09T13:53:02.085Z,9.77
2024-05-09T13:55:28.826Z,11.10
2024-05-09T13:57:55.646Z,11.07
2024-05-09T14:00:32.119Z,13.20
2024-05-09T14:03:09.466Z,10.57
2024-05-09T14:05:36.520Z,11.90
2024-05-09T14:08:03.302Z,12.13
2024-05-09T14:10:31.883Z,11.32
2024-05-09T14:12:59.343Z,11.75
2024-05-09T14:15:26.026Z,12.43
2024-05-09T14:17:53.260Z,12.07
2024-05-09T14:20:29.872Z,12.15
2024-05-09T14:22:58.649Z,13.18
2024-05-09T14:25:26.752Z,11.95
2024-05-09T14:27:53.722Z,12.07
2024-05-09T14:30:30.103Z,11.65
2024-05-09T14:33:02.769Z,12.13
2024-05-09T14:35:29.398Z,12.38
2024-05-09T14:37:55.952Z,14.45
2024-05-09T14:40:35.753Z,12.07
2024-05-09T14:43:09.447Z,13.55
2024-05-09T14:45:36.206Z,13.52
2024-05-09T14:48:03.861Z,12.65
2024-05-09T14:50:36.175Z,12.35
2024-05-09T14:53:06.675Z,12.57
2024-05-09T14:55:36.505Z,13.27
2024-05-09T14:58:05.069Z,13.18
2024-05-09T15:00:38.485Z,13.32
2024-05-09T15:03:06.902Z,14.57
2024-05-09T15:05:33.765Z,12.45
2024-05-09T15:08:00.852Z,12.90
2024-05-09T15:10:34.365Z,13.93
2024-05-09T15:13:03.733Z,12.23
2024-05-09T15:15:30.858Z,12.25
2024-05-09T15:17:57.697Z,12.20
2024-05-09T15:20:32.950Z,13.77
2024-05-09T15:23:02.551Z,13.00
2024-05-09T15:25:29.486Z,12.18
2024-05-09T15:27:56.347Z,13.35
2024-05-09T15:30:30.338Z,17.48
2024-05-09T15:32:59.584Z,12.10
2024-05-09T15:35:26.251Z,12.98
2024-05-09T15:37:52.943Z,12.05
2024-05-09T15:40:30.397Z,12.25
2024-05-09T15:43:04.466Z,11.65
2024-05-09T15:45:31.295Z,13.85
2024-05-09T15:47:58.343Z,12.27
2024-05-09T15:50:35.193Z,13.98
2024-05-09T15:53:05.950Z,12.23
2024-05-09T15:55:34.516Z,13.27
2024-05-09T15:58:02.120Z,15.93
2024-05-09T16:00:36.817Z,18.85
2024-05-09T16:03:07.433Z,19.30
2024-05-09T16:05:34.534Z,18.08
2024-05-09T16:08:01.334Z,20.95
2024-05-09T16:10:32.630Z,18.75
2024-05-09T16:13:01.059Z,19.30
2024-05-09T16:15:27.955Z,19.13
2024-05-09T16:17:55.068Z,18.45
2024-05-09T16:20:33.995Z,18.80
2024-05-09T16:23:06.111Z,17.95
2024-05-09T16:25:32.750Z,20.02
2024-05-09T16:27:59.828Z,19.83
2024-05-09T16:30:33.823Z,17.33
2024-05-09T16:33:03.508Z,16.75
2024-05-09T16:35:30.928Z,16.60
2024-05-09T16:37:57.849Z,17.05
2024-05-09T16:40:34.333Z,16.10
2024-05-09T16:43:05.899Z,19.88
2024-05-09T16:45:33.296Z,16.67
2024-05-09T16:48:00.399Z,17.10
2024-05-09T16:50:32.482Z,17.40
2024-05-09T16:53:01.036Z,19.80
2024-05-09T16:55:27.887Z,18.80
2024-05-09T16:57:55.629Z,18.35
2024-05-09T17:00:31.594Z,19.98
2024-05-09T17:03:06.985Z,18.27
2024-05-09T17:05:37.350Z,19.70
2024-05-09T17:08:04.565Z,19.73
2024-05-09T17:10:33.892Z,19.50
2024-05-09T17:13:02.545Z,19.45
2024-05-09T17:15:29.750Z,19.48
2024-05-09T17:17:56.688Z,19.13
2024-05-09T17:20:31.282Z,20.88
2024-05-09T17:23:01.961Z,21.02
2024-05-09T17:25:28.967Z,20.83
2024-05-09T17:27:56.033Z,21.60
2024-05-09T17:30:29.124Z,20.00
2024-05-09T17:33:02.194Z,20.15
2024-05-09T17:35:29.138Z,24.33
2024-05-09T17:37:55.938Z,20.00
2024-05-09T17:40:30.926Z,19.65
2024-05-09T17:43:01.606Z,19.08
2024-05-09T17:45:28.502Z,19.58
2024-05-09T17:47:55.487Z,18.10
2024-05-09T17:50:30.211Z,18.35
2024-05-09T17:53:01.153Z,19.38
2024-05-09T17:55:28.629Z,20.20
2024-05-09T17:57:55.528Z,18.98
2024-05-09T18:00:32.902Z,19.17
2024-05-09T18:03:05.503Z,18.45
2024-05-09T18:05:32.520Z,18.55
2024-05-09T18:07:59.362Z,18.65
2024-05-09T18:10:33.129Z,18.98
2024-05-09T18:13:05.484Z,17.52
2024-05-09T18:15:32.769Z,19.02
2024-05-09T18:17:59.706Z,20.90
2024-05-09T18:20:36.676Z,19.58
2024-05-09T18:23:08.888Z,19.27
2024-05-09T18:25:35.703Z,19.95
2024-05-09T18:28:03.132Z,19.38
2024-05-09T18:30:34.814Z,19.67
2024-05-09T18:33:04.123Z,20.13
2024-05-09T18:35:31.302Z,19.38
2024-05-09T18:37:57.983Z,19.50
2024-05-09T18:40:32.664Z,18.88
2024-05-09T18:43:03.401Z,20.27
2024-05-09T18:45:33.646Z,20.70
2024-05-09T18:48:00.821Z,24.50
2024-05-09T18:50:34.975Z,21.42
2024-05-09T18:53:12.540Z,21.08
2024-05-09T18:55:40.670Z,20.55
2024-05-09T18:58:07.315Z,24.33
2024-05-09T19:00:37.532Z,23.17
2024-05-09T19:03:10.291Z,22.63
2024-05-09T19:05:39.980Z,23.98
2024-05-09T19:08:07.519Z,26.02
2024-05-09T19:10:35.773Z,22.90
2024-05-09T19:13:08.175Z,22.23
2024-05-09T19:15:38.807Z,21.75
2024-05-09T19:18:06.176Z,23.27
2024-05-09T19:20:35.241Z,22.75
2024-05-09T19:23:03.307Z,23.48
2024-05-09T19:25:30.142Z,23.40
2024-05-09T19:27:56.817Z,23.95
2024-05-09T19:30:30.537Z,26.48
2024-05-09T19:33:05.314Z,25.45
2024-05-09T19:35:32.496Z,24.30
2024-05-09T19:37:59.322Z,24.33
2024-05-09T19:40:31.366Z,24.38
2024-05-09T19:43:00.302Z,25.92
2024-05-09T19:45:26.981Z,25.25
2024-05-09T19:47:53.792Z,25.55
2024-05-09T19:50:27.120Z,26.38
2024-05-09T19:53:03.059Z,26.70
2024-05-09T19:55:29.774Z,34.80
2024-05-09T19:57:56.539Z,27.60
2024-05-09T20:00:32.304Z,28.70
2024-05-09T20:03:02.256Z,27.67
2024-05-09T20:05:31.184Z,28.67
2024-05-09T20:07:59.037Z,29.48
2024-05-09T20:10:31.457Z,28.60
2024-05-09T20:13:00.289Z,28.63
2024-05-09T20:15:27.022Z,29.05
2024-05-09T20:17:54.107Z,28.20
2024-05-09T20:20:31.923Z,34.60
2024-05-09T20:23:03.532Z,27.63
2024-05-09T20:25:30.219Z,29.92
2024-05-09T20:27:56.960Z,30.67
2024-05-09T20:30:30.649Z,30.35
2024-05-09T20:33:00.087Z,32.38
2024-05-09T20:35:30.647Z,31.20
2024-05-09T20:37:57.333Z,36.35
2024-05-09T20:40:29.242Z,32.88
2024-05-09T20:43:00.280Z,30.80
2024-05-09T20:45:27.100Z,32.42
2024-05-09T20:47:53.951Z,33.53
2024-05-09T20:50:28.933Z,33.15
2024-05-09T20:53:03.431Z,35.97
2024-05-09T20:55:30.349Z,35.15
2024-05-09T20:57:57.457Z,34.60
2024-05-09T21:00:33.723Z,33.55
2024-05-09T21:03:05.620Z,35.08
2024-05-09T21:05:32.737Z,33.53
2024-05-09T21:07:59.446Z,40.25
2024-05-09T21:10:27.102Z,37.30
2024-05-09T21:12:56.406Z,36.50
2024-05-09T21:15:23.107Z,37.47
2024-05-09T21:17:52.498Z,37.35
2024-05-09T21:20:24.290Z,37.55
2024-05-09T21:22:57.419Z,37.42
2024-05-09T21:25:24.050Z,38.55
2024-05-09T21:27:50.735Z,39.17
2024-05-09T21:30:26.754Z,37.78
2024-05-09T21:32:59.020Z,40.15
2024-05-09T21:35:25.742Z,37.55
2024-05-09T21:37:52.412Z,39.17
2024-05-09T21:40:27.223Z,36.30
2024-05-09T21:43:00.758Z,44.33
2024-05-09T21:45:27.626Z,41.08
2024-05-09T21:47:54.529Z,39.35
2024-05-09T21:50:28.019Z,39.92
2024-05-09T21:52:59.224Z,41.13
2024-05-09T21:55:25.830Z,41.13
2024-05-09T21:57:52.516Z,41.50
2024-05-09T22:00:28.852Z,42.50
2024-05-09T22:03:02.669Z,41.17
2024-05-09T22:05:29.767Z,41.90
2024-05-09T22:07:57.212Z,42.42
2024-05-09T22:10:30.548Z,44.28
2024-05-09T22:13:00.956Z,47.80
2024-05-09T22:15:27.843Z,43.17
2024-05-09T22:17:55.296Z,43.60
2024-05-09T22:20:28.905Z,46.15
2024-05-09T22:23:02.546Z,46.22
2024-05-09T22:25:30.917Z,47.58
2024-05-09T22:27:58.664Z,45.38
2024-05-09T22:30:34.063Z,49.70
2024-05-09T22:33:05.396Z,47.42
2024-05-09T22:35:32.390Z,47.72
2024-05-09T22:37:59.197Z,49.25
2024-05-09T22:40:37.939Z,48.88
2024-05-09T22:43:12.756Z,50.50
2024-05-09T22:45:39.801Z,48.55
2024-05-09T22:48:07.345Z,47.97
2024-05-09T22:50:34.267Z,47.20
2024-05-09T22:53:01.141Z,46.95
2024-05-09T22:55:27.975Z,46.15
2024-05-09T22:57:54.719Z,48.05
2024-05-09T23:00:29.339Z,46.22
2024-05-09T23:02:59.684Z,46.42
2024-05-09T23:05:26.510Z,46.63
2024-05-09T23:07:53.202Z,46.80
2024-05-09T23:10:27.459Z,48.80
2024-05-09T23:12:59.052Z,49.10
2024-05-09T23:15:25.852Z,48.03
2024-05-09T23:17:52.652Z,54.65
2024-05-09T23:20:29.828Z,47.67
2024-05-09T23:23:03.542Z,49.15
2024-05-09T23:25:30.258Z,50.47
2024-05-09T23:27:57.145Z,50.55
2024-05-09T23:30:33.290Z,51.33
2024-05-09T23:33:04.683Z,52.97
2024-05-09T23:35:31.383Z,53.53
2024-05-09T23:37:58.051Z,52.03
2024-05-09T23:40:36.337Z,51.92
2024-05-09T23:43:06.333Z,51.22
2024-05-09T23:45:33.343Z,52.17
2024-05-09T23:48:00.285Z,53.75
2024-05-09T23:50:34.248Z,53.22
2024-05-09T23:53:04.571Z,52.53
2024-05-09T23:55:32.450Z,62.15
2024-05-09T23:57:59.745Z,53.05
